Terminal Aerodrome Forecast
Issued by NWS

Current Version | Previous Version | Text Only | Print | Product List | Glossary On
Versions: 1 2 3 4 5 6 7 8 9 10 11 12 13 14 15 16 17 18 19 20 21
000
FTUS42 TJSJ 310700 CCA
TAFISX
TAF COR
TISX 310754Z 3108/0106 VRB05KT P6SM VCTS SCT025CB SCT050
      TEMPO 3108/3110 VRB10KT 3SM TSRA BKN025CB
     FM311300 14011KT P6SM SCT025
     FM312200 VRB05KT P6SM FEW025
      AMD NOT SKED=

USA.gov is the U.S. government's official web portal to all federal, state and local government web resources and services.